Time;durP1;ratioP1;P1;durP2;ratioP2;P2;SDS_P1;SDS_P2;PMS_P1;PMS_P2;Temp;Humidity;BMP_temperature;BMP_pressure;BME280_temperature;BME280_humidity;BME280_pressure;Samples;Min_cycle;Max_cycle;Signal;HPM_P1;HPM_P2
2021/05/20 00:01:07;;;;;;;10.60;8.70;;;;;;;;;;5074732;28;20179;-76
2021/05/20 00:03:33;;;;;;;8.70;7.90;;;;;;;;;;5064720;28;20436;-75
2021/05/20 00:05:59;;;;;;;9.07;8.27;;;;;;;;;;5077776;28;20168;-77
2021/05/20 00:08:25;;;;;;;7.30;6.70;;;;;;;;;;5074408;28;20255;-76
2021/05/20 00:10:51;;;;;;;8.25;7.45;;;;;;;;;;5070959;28;20549;-77
2021/05/20 00:13:17;;;;;;;7.20;6.57;;;;;;;;;;5075590;28;20251;-77
2021/05/20 00:15:43;;;;;;;9.02;6.93;;;;;;;;;;5075912;28;20176;-76
2021/05/20 00:18:09;;;;;;;8.13;6.65;;;;;;;;;;5073398;28;20625;-75
2021/05/20 00:20:35;;;;;;;8.07;7.28;;;;;;;;;;5071528;28;20203;-76
2021/05/20 00:23:01;;;;;;;7.72;6.93;;;;;;;;;;5075561;28;20255;-78
2021/05/20 00:25:27;;;;;;;6.55;5.90;;;;;;;;;;5075617;28;20211;-77
2021/05/20 00:27:53;;;;;;;6.87;6.07;;;;;;;;;;5075670;28;20557;-77
2021/05/20 00:30:19;;;;;;;7.53;6.53;;;;;;;;;;5067664;28;20440;-77
2021/05/20 00:32:46;;;;;;;6.85;6.25;;;;;;;;;;5075428;28;20410;-76
2021/05/20 00:35:12;;;;;;;7.15;6.55;;;;;;;;;;5072020;28;20251;-77
2021/05/20 00:37:38;;;;;;;7.70;6.15;;;;;;;;;;5073668;28;20190;-76
2021/05/20 00:40:05;;;;;;;6.30;5.75;;;;;;;;;;5069694;28;20216;-76
2021/05/20 00:42:31;;;;;;;6.50;5.90;;;;;;;;;;5082883;28;20173;-77
2021/05/20 00:45:04;;;;;;;6.43;5.85;;;;;;;;;;5079407;28;20561;-76
2021/05/20 00:47:31;;;;;;;5.88;5.47;;;;;;;;;;5075673;28;20178;-76
2021/05/20 00:49:57;;;;;;;6.28;5.82;;;;;;;;;;5073121;28;20219;-77
2021/05/20 00:52:24;;;;;;;6.35;5.78;;;;;;;;;;5083426;28;20176;-75
2021/05/20 00:54:54;;;;;;;6.78;6.13;;;;;;;;;;5073869;28;20562;-77
2021/05/20 00:57:21;;;;;;;6.78;6.18;;;;;;;;;;5075473;28;20225;-77
2021/05/20 00:59:47;;;;;;;8.30;6.70;;;;;;;;;;5073641;28;20625;-77
2021/05/20 01:02:14;;;;;;;6.95;6.35;;;;;;;;;;5081761;28;20179;-77
2021/05/20 01:04:40;;;;;;;7.05;6.45;;;;;;;;;;5076107;28;20533;-78
2021/05/20 01:07:06;;;;;;;6.25;5.75;;;;;;;;;;5077181;28;20537;-77
2021/05/20 01:09:33;;;;;;;6.68;6.15;;;;;;;;;;5073460;28;20203;-77
2021/05/20 01:12:00;;;;;;;6.53;5.93;;;;;;;;;;5075377;28;20176;-76
2021/05/20 01:14:26;;;;;;;5.95;5.45;;;;;;;;;;5070194;28;20200;-77
2021/05/20 01:16:52;;;;;;;5.63;5.07;;;;;;;;;;5075432;28;20246;-76
2021/05/20 01:19:18;;;;;;;5.63;5.13;;;;;;;;;;5069738;28;20209;-77
2021/05/20 01:21:44;;;;;;;5.90;5.40;;;;;;;;;;5073642;28;20173;-77
2021/05/20 01:24:13;;;;;;;7.20;5.65;;;;;;;;;;5074930;28;20184;-75
2021/05/20 01:26:39;;;;;;;5.45;5.05;;;;;;;;;;5075661;28;20329;-77
2021/05/20 01:29:06;;;;;;;5.70;5.20;;;;;;;;;;5078623;28;20212;-76
2021/05/20 01:31:33;;;;;;;5.28;4.88;;;;;;;;;;5075014;28;20207;-77
2021/05/20 01:33:59;;;;;;;5.13;4.60;;;;;;;;;;5069762;28;20183;-76
2021/05/20 01:36:29;;;;;;;6.65;5.65;;;;;;;;;;5081272;28;20179;-76
2021/05/20 01:38:59;;;;;;;5.25;4.80;;;;;;;;;;5068898;28;20661;-77
2021/05/20 01:41:25;;;;;;;5.45;5.05;;;;;;;;;;5079921;28;20204;-78
2021/05/20 01:43:51;;;;;;;5.85;5.13;;;;;;;;;;5071889;28;20232;-77
2021/05/20 01:46:17;;;;;;;5.97;4.70;;;;;;;;;;5080735;28;20526;-77
2021/05/20 01:48:44;;;;;;;4.70;4.30;;;;;;;;;;5075915;28;20421;-77
2021/05/20 01:51:11;;;;;;;5.45;4.95;;;;;;;;;;5074280;28;20184;-77
2021/05/20 01:53:53;;;;;;;4.40;4.10;;;;;;;;;;5072959;28;20168;-77
2021/05/20 01:56:19;;;;;;;5.50;5.00;;;;;;;;;;5066894;28;20169;-77
2021/05/20 01:58:46;;;;;;;4.50;4.10;;;;;;;;;;5078372;28;20168;-78
2021/05/20 02:01:12;;;;;;;5.13;4.55;;;;;;;;;;5074451;28;20172;-76
2021/05/20 02:03:38;;;;;;;5.15;4.75;;;;;;;;;;5074464;28;20179;-77
2021/05/20 02:06:05;;;;;;;5.07;4.63;;;;;;;;;;5076137;28;20283;-76
2021/05/20 02:08:32;;;;;;;4.53;4.13;;;;;;;;;;5080198;28;20225;-76
2021/05/20 02:10:58;;;;;;;5.75;5.25;;;;;;;;;;5076610;28;20180;-77
2021/05/20 02:13:24;;;;;;;5.20;4.80;;;;;;;;;;5083634;28;20203;-76
2021/05/20 02:15:50;;;;;;;5.32;4.82;;;;;;;;;;5076575;28;20549;-77
2021/05/20 02:18:17;;;;;;;5.15;4.60;;;;;;;;;;5081777;28;20540;-77
2021/05/20 02:20:46;;;;;;;5.20;4.70;;;;;;;;;;5060490;28;20204;-77
2021/05/20 02:23:12;;;;;;;4.85;4.45;;;;;;;;;;5074080;28;20668;-77
2021/05/20 02:25:38;;;;;;;5.07;4.57;;;;;;;;;;5082589;28;20184;-76
2021/05/20 02:28:05;;;;;;;6.25;4.47;;;;;;;;;;5072358;28;20176;-77
2021/05/20 02:30:31;;;;;;;5.25;4.85;;;;;;;;;;5073999;28;20203;-77
2021/05/20 02:32:57;;;;;;;5.30;4.70;;;;;;;;;;5073694;28;20176;-77
2021/05/20 02:35:24;;;;;;;5.47;4.97;;;;;;;;;;5074010;28;20184;-75
2021/05/20 02:37:50;;;;;;;4.70;4.30;;;;;;;;;;5073850;28;20180;-75
2021/05/20 02:40:16;;;;;;;5.22;4.72;;;;;;;;;;5078701;28;20230;-76
2021/05/20 02:42:43;;;;;;;5.28;4.80;;;;;;;;;;5069592;28;20179;-77
2021/05/20 02:45:10;;;;;;;6.05;5.00;;;;;;;;;;5068979;28;20649;-77
2021/05/20 02:47:37;;;;;;;5.30;4.90;;;;;;;;;;5058954;28;20187;-76
2021/05/20 02:50:04;;;;;;;5.18;4.70;;;;;;;;;;5060551;28;20205;-77
2021/05/20 02:52:30;;;;;;;5.80;5.38;;;;;;;;;;5066707;28;20184;-76
2021/05/20 02:54:56;;;;;;;5.05;4.65;;;;;;;;;;5064878;28;20572;-77
2021/05/20 02:57:22;;;;;;;5.55;5.15;;;;;;;;;;5052886;28;20189;-76
2021/05/20 02:59:48;;;;;;;5.40;4.90;;;;;;;;;;5076855;28;20199;-77
2021/05/20 03:02:14;;;;;;;5.43;4.93;;;;;;;;;;5067803;28;20510;-76
2021/05/20 03:04:40;;;;;;;5.45;4.95;;;;;;;;;;5061874;28;20592;-77
2021/05/20 03:07:07;;;;;;;5.72;5.22;;;;;;;;;;5057527;28;20242;-76
2021/05/20 03:09:34;;;;;;;6.35;5.75;;;;;;;;;;5059047;28;20284;-77
2021/05/20 03:12:00;;;;;;;6.22;5.72;;;;;;;;;;5052766;28;20192;-77
2021/05/20 03:14:27;;;;;;;7.35;6.22;;;;;;;;;;5066675;28;20238;-78
2021/05/20 03:16:53;;;;;;;6.63;6.13;;;;;;;;;;5059421;28;20189;-77
2021/05/20 03:19:19;;;;;;;11.52;7.70;;;;;;;;;;5082984;28;20203;-77
2021/05/20 03:21:46;;;;;;;7.50;6.85;;;;;;;;;;5067926;28;20176;-77
2021/05/20 03:24:12;;;;;;;7.55;6.85;;;;;;;;;;5071840;28;20655;-76
2021/05/20 03:26:38;;;;;;;8.23;7.43;;;;;;;;;;5073507;28;20176;-77
2021/05/20 03:29:05;;;;;;;8.20;7.43;;;;;;;;;;5078242;28;20230;-77
2021/05/20 03:31:32;;;;;;;8.40;7.60;;;;;;;;;;5076631;28;22064;-77
2021/05/20 03:33:58;;;;;;;9.00;8.07;;;;;;;;;;5082549;28;20183;-78
2021/05/20 03:36:24;;;;;;;9.85;8.85;;;;;;;;;;5074739;28;20569;-77
2021/05/20 03:38:50;;;;;;;10.30;9.23;;;;;;;;;;5076081;28;20196;-75
2021/05/20 03:41:16;;;;;;;10.85;9.85;;;;;;;;;;5082919;28;20168;-77
2021/05/20 03:43:42;;;;;;;9.63;8.83;;;;;;;;;;5075479;28;20183;-77
2021/05/20 03:46:08;;;;;;;10.15;9.23;;;;;;;;;;5072228;28;20430;-76
2021/05/20 03:48:34;;;;;;;9.90;8.98;;;;;;;;;;5066930;28;20169;-76
2021/05/20 03:51:01;;;;;;;10.70;9.65;;;;;;;;;;5076689;28;20532;-77
2021/05/20 03:53:31;;;;;;;11.30;10.25;;;;;;;;;;5081362;28;20171;-76
2021/05/20 03:55:58;;;;;;;11.68;10.68;;;;;;;;;;5075080;28;20203;-77
2021/05/20 03:58:25;;;;;;;10.20;9.30;;;;;;;;;;5069906;28;20275;-77
2021/05/20 04:00:51;;;;;;;11.43;10.32;;;;;;;;;;5074437;28;20200;-77
2021/05/20 04:03:27;;;;;;;11.02;10.02;;;;;;;;;;5081029;28;20187;-77
2021/05/20 04:05:54;;;;;;;12.57;10.73;;;;;;;;;;5079939;28;20198;-77
2021/05/20 04:08:20;;;;;;;11.93;10.73;;;;;;;;;;5077439;28;20176;-78
2021/05/20 04:10:46;;;;;;;12.30;11.13;;;;;;;;;;5077449;28;20207;-78
2021/05/20 04:13:13;;;;;;;13.23;11.98;;;;;;;;;;5069344;28;20537;-78
2021/05/20 04:15:39;;;;;;;13.15;11.82;;;;;;;;;;5073529;28;20176;-77
2021/05/20 04:18:05;;;;;;;13.30;11.90;;;;;;;;;;5066160;28;20168;-77
2021/05/20 04:20:31;;;;;;;10.65;8.45;;;;;;;;;;5085439;28;20211;-77
2021/05/20 04:22:57;;;;;;;14.82;13.25;;;;;;;;;;5080033;28;20254;-76
2021/05/20 04:25:23;;;;;;;14.75;13.25;;;;;;;;;;5077380;28;20184;-77
2021/05/20 04:27:49;;;;;;;14.40;12.90;;;;;;;;;;5072739;28;20172;-77
2021/05/20 04:30:15;;;;;;;13.88;12.40;;;;;;;;;;5078527;28;20219;-78
2021/05/20 04:32:41;;;;;;;14.05;12.75;;;;;;;;;;5075114;28;20187;-76
2021/05/20 04:35:08;;;;;;;14.20;12.75;;;;;;;;;;5072490;28;20633;-76
2021/05/20 04:37:34;;;;;;;14.13;12.65;;;;;;;;;;5077323;28;20184;-77
2021/05/20 04:40:00;;;;;;;15.38;13.88;;;;;;;;;;5077720;28;20707;-78
2021/05/20 04:42:26;;;;;;;16.65;13.75;;;;;;;;;;5072381;28;20202;-76
2021/05/20 04:44:52;;;;;;;15.52;13.93;;;;;;;;;;5074359;28;20168;-76
2021/05/20 04:47:18;;;;;;;14.70;13.40;;;;;;;;;;5077702;28;20569;-76
2021/05/20 04:49:44;;;;;;;16.00;14.40;;;;;;;;;;5073785;28;20247;-77
2021/05/20 04:52:10;;;;;;;15.82;14.10;;;;;;;;;;5074649;28;20180;-77
2021/05/20 04:54:36;;;;;;;15.25;13.75;;;;;;;;;;5078025;28;20267;-77
2021/05/20 04:57:02;;;;;;;15.90;14.30;;;;;;;;;;5075704;28;20168;-76
2021/05/20 04:59:28;;;;;;;16.33;14.23;;;;;;;;;;5074250;28;20836;-77
2021/05/20 05:01:54;;;;;;;17.55;15.65;;;;;;;;;;5084552;28;20185;-78
2021/05/20 05:04:20;;;;;;;17.42;15.60;;;;;;;;;;5086261;28;20171;-78
2021/05/20 05:06:46;;;;;;;16.80;15.03;;;;;;;;;;5055858;28;20530;-77
2021/05/20 05:09:12;;;;;;;15.87;14.27;;;;;;;;;;5076686;28;20442;-77
2021/05/20 05:11:38;;;;;;;17.58;15.68;;;;;;;;;;5081079;28;20415;-77
2021/05/20 05:14:04;;;;;;;16.65;14.95;;;;;;;;;;5061586;28;20641;-78
2021/05/20 05:16:30;;;;;;;15.73;14.13;;;;;;;;;;5072506;28;20192;-77
2021/05/20 05:18:56;;;;;;;14.20;12.80;;;;;;;;;;5079024;28;20206;-77
2021/05/20 05:21:22;;;;;;;16.92;15.23;;;;;;;;;;5072394;28;20184;-77
2021/05/20 05:23:48;;;;;;;16.77;15.07;;;;;;;;;;5064669;28;20172;-78
2021/05/20 05:26:14;;;;;;;16.20;14.50;;;;;;;;;;5057138;28;20177;-77
2021/05/20 05:28:40;;;;;;;16.13;14.30;;;;;;;;;;5071203;28;20172;-77
2021/05/20 05:31:09;;;;;;;16.48;14.38;;;;;;;;;;5077328;28;20589;-77
2021/05/20 05:33:35;;;;;;;16.92;14.55;;;;;;;;;;5073092;28;20645;-77
2021/05/20 05:36:01;;;;;;;16.40;14.73;;;;;;;;;;5060877;28;20542;-77
2021/05/20 05:38:27;;;;;;;16.60;15.00;;;;;;;;;;5068049;28;20182;-76
2021/05/20 05:40:53;;;;;;;16.63;14.93;;;;;;;;;;5070568;28;20204;-77
2021/05/20 05:43:19;;;;;;;16.45;14.85;;;;;;;;;;5074311;28;20176;-75
2021/05/20 05:45:45;;;;;;;16.77;15.03;;;;;;;;;;5081584;28;20179;-76
2021/05/20 05:48:12;;;;;;;15.70;14.23;;;;;;;;;;5067110;28;20416;-78
2021/05/20 05:50:39;;;;;;;14.88;13.43;;;;;;;;;;5076265;28;20227;-77
2021/05/20 05:53:07;;;;;;;16.02;14.32;;;;;;;;;;5067597;28;20188;-77
2021/05/20 05:55:33;;;;;;;14.75;13.27;;;;;;;;;;5076770;28;20168;-79
2021/05/20 05:57:59;;;;;;;14.48;12.90;;;;;;;;;;5075382;28;20164;-77
2021/05/20 06:00:25;;;;;;;15.57;13.13;;;;;;;;;;5055200;28;20211;-77
2021/05/20 06:02:51;;;;;;;13.23;12.02;;;;;;;;;;5054378;28;20192;-78
2021/05/20 06:05:18;;;;;;;13.25;12.00;;;;;;;;;;5058099;28;20526;-77
2021/05/20 06:07:45;;;;;;;13.75;10.80;;;;;;;;;;5066622;28;20192;-77
2021/05/20 06:10:11;;;;;;;13.63;12.23;;;;;;;;;;5059217;28;20315;-77
2021/05/20 06:12:37;;;;;;;13.07;11.68;;;;;;;;;;5057942;28;20250;-78
2021/05/20 06:15:05;;;;;;;13.00;11.80;;;;;;;;;;5058148;28;20180;-77
2021/05/20 06:17:31;;;;;;;12.73;11.52;;;;;;;;;;5070686;28;20242;-77
2021/05/20 06:19:57;;;;;;;12.20;11.10;;;;;;;;;;5064564;28;20229;-77
2021/05/20 06:22:23;;;;;;;13.20;11.90;;;;;;;;;;5076110;28;20188;-76
2021/05/20 06:24:49;;;;;;;14.10;12.23;;;;;;;;;;5077348;28;20176;-80
2021/05/20 06:27:16;;;;;;;14.25;12.10;;;;;;;;;;5075653;28;20262;-78
2021/05/20 06:29:42;;;;;;;12.77;11.50;;;;;;;;;;5074324;28;20275;-78
2021/05/20 06:32:08;;;;;;;12.98;11.68;;;;;;;;;;5057270;28;20208;-78
2021/05/20 06:34:34;;;;;;;12.73;11.52;;;;;;;;;;5054348;28;20593;-79
2021/05/20 06:37:02;;;;;;;13.00;11.70;;;;;;;;;;5054877;28;20235;-76
2021/05/20 06:39:28;;;;;;;11.98;10.05;;;;;;;;;;5056070;28;20471;-76
2021/05/20 06:41:55;;;;;;;15.57;11.55;;;;;;;;;;5058958;28;20195;-77
2021/05/20 06:44:22;;;;;;;12.25;11.15;;;;;;;;;;5066712;28;20192;-77
2021/05/20 06:46:49;;;;;;;13.20;11.77;;;;;;;;;;5054106;28;20173;-77
2021/05/20 06:49:15;;;;;;;12.55;11.32;;;;;;;;;;5054934;28;20275;-75
2021/05/20 06:51:41;;;;;;;12.82;11.52;;;;;;;;;;5054030;28;20189;-76
2021/05/20 06:54:07;;;;;;;12.57;10.75;;;;;;;;;;5063123;28;20260;-76
2021/05/20 06:56:33;;;;;;;11.68;10.57;;;;;;;;;;5077097;28;20189;-77
2021/05/20 07:01:47;;;;;;;12.40;11.32;;;;;;;;;;5064313;28;20261;-79
2021/05/20 07:04:14;;;;;;;10.75;9.80;;;;;;;;;;5054428;28;20184;-77
2021/05/20 07:06:40;;;;;;;10.93;9.93;;;;;;;;;;5056249;28;20397;-79
2021/05/20 07:09:07;;;;;;;10.95;9.88;;;;;;;;;;5052540;28;20295;-76
2021/05/20 07:11:33;;;;;;;11.20;9.07;;;;;;;;;;5050188;28;20609;-77
2021/05/20 07:13:59;;;;;;;10.27;8.40;;;;;;;;;;5050612;28;20181;-77
2021/05/20 07:16:26;;;;;;;9.43;8.52;;;;;;;;;;5059964;28;20217;-77
2021/05/20 07:18:52;;;;;;;9.32;8.38;;;;;;;;;;5048998;28;20204;-76
2021/05/20 07:21:18;;;;;;;8.88;8.02;;;;;;;;;;5068303;28;20609;-76
2021/05/20 07:23:45;;;;;;;8.50;7.60;;;;;;;;;;5063165;28;20181;-77
2021/05/20 07:26:11;;;;;;;8.70;7.88;;;;;;;;;;5054770;28;20582;-75
2021/05/20 07:28:37;;;;;;;9.03;7.30;;;;;;;;;;5054095;28;20184;-75
2021/05/20 07:31:03;;;;;;;9.23;8.27;;;;;;;;;;5052982;28;20437;-75
2021/05/20 07:33:30;;;;;;;7.88;6.90;;;;;;;;;;5061487;28;20229;-76
2021/05/20 07:35:56;;;;;;;7.60;7.00;;;;;;;;;;5056454;28;20184;-76
2021/05/20 07:38:22;;;;;;;6.85;6.20;;;;;;;;;;5051270;28;20181;-76
2021/05/20 07:40:48;;;;;;;6.97;6.28;;;;;;;;;;5049399;28;20209;-77
2021/05/20 07:43:14;;;;;;;7.35;6.50;;;;;;;;;;5073223;28;20187;-76
2021/05/20 07:45:40;;;;;;;6.43;5.82;;;;;;;;;;5063799;28;20553;-76
2021/05/20 07:48:06;;;;;;;6.40;5.80;;;;;;;;;;5054259;28;20479;-77
2021/05/20 07:50:32;;;;;;;5.50;5.03;;;;;;;;;;5056248;28;20212;-77
2021/05/20 07:52:58;;;;;;;6.05;5.55;;;;;;;;;;5054420;28;20530;-78
2021/05/20 07:55:25;;;;;;;6.07;5.57;;;;;;;;;;5056107;28;20188;-76
2021/05/20 07:57:53;;;;;;;5.85;5.35;;;;;;;;;;5049509;28;20267;-77
2021/05/20 08:00:19;;;;;;;6.93;6.40;;;;;;;;;;5067122;28;20204;-77
2021/05/20 08:05:18;;;;;;;6.88;6.28;;;;;;;;;;5056574;28;20562;-77
2021/05/20 08:07:58;;;;;;;7.38;6.75;;;;;;;;;;5048176;28;20224;-77
2021/05/20 08:13:09;;;;;;;7.80;5.30;;;;;;;;;;5048650;28;20250;-78
2021/05/20 08:15:35;;;;;;;5.57;5.00;;;;;;;;;;5046696;28;20192;-77
2021/05/20 08:18:01;;;;;;;5.28;4.88;;;;;;;;;;5062012;28;20189;-77
2021/05/20 08:20:27;;;;;;;5.70;5.15;;;;;;;;;;5052077;28;20255;-77
2021/05/20 08:22:53;;;;;;;5.10;4.57;;;;;;;;;;5060427;28;20180;-75
2021/05/20 08:25:19;;;;;;;4.85;4.40;;;;;;;;;;5052080;28;20219;-77
2021/05/20 08:27:45;;;;;;;5.32;4.70;;;;;;;;;;5076452;28;20642;-76
2021/05/20 08:30:12;;;;;;;4.85;4.20;;;;;;;;;;5051712;28;20203;-77
2021/05/20 08:32:38;;;;;;;5.93;4.50;;;;;;;;;;5066138;28;20187;-77
2021/05/20 08:35:05;;;;;;;4.78;4.25;;;;;;;;;;5071749;28;20183;-77
2021/05/20 08:37:31;;;;;;;4.85;4.45;;;;;;;;;;5056998;28;20181;-77
2021/05/20 08:39:57;;;;;;;4.55;4.15;;;;;;;;;;5063794;28;20522;-78
2021/05/20 08:42:23;;;;;;;4.50;4.10;;;;;;;;;;5055628;28;20196;-77
2021/05/20 08:44:49;;;;;;;4.40;4.00;;;;;;;;;;5051829;28;20215;-78
2021/05/20 08:47:15;;;;;;;6.18;4.20;;;;;;;;;;5055544;28;20549;-77
2021/05/20 08:49:45;;;;;;;5.20;3.90;;;;;;;;;;5070473;28;20209;-78
2021/05/20 08:52:13;;;;;;;4.57;4.18;;;;;;;;;;5052096;28;20439;-78
2021/05/20 08:54:39;;;;;;;4.63;4.03;;;;;;;;;;5059121;28;20185;-77
2021/05/20 08:57:05;;;;;;;4.13;3.70;;;;;;;;;;5056347;28;20461;-76
2021/05/20 08:59:31;;;;;;;5.83;4.20;;;;;;;;;;5066378;28;20848;-78
2021/05/20 09:01:59;;;;;;;4.10;3.80;;;;;;;;;;5056548;28;20441;-77
2021/05/20 09:04:28;;;;;;;3.17;2.87;;;;;;;;;;5060759;28;20408;-77
2021/05/20 09:06:59;;;;;;;4.40;4.00;;;;;;;;;;5067390;28;20514;-77
2021/05/20 09:09:32;;;;;;;6.23;4.47;;;;;;;;;;5060883;28;20446;-76
2021/05/20 09:11:58;;;;;;;4.37;3.97;;;;;;;;;;5053857;28;20415;-77
2021/05/20 09:14:43;;;;;;;8.63;4.40;;;;;;;;;;5076355;28;20448;-77
2021/05/20 09:17:13;;;;;;;4.95;4.55;;;;;;;;;;5054349;28;20465;-76
2021/05/20 09:19:43;;;;;;;5.67;4.90;;;;;;;;;;5057343;28;20258;-76
2021/05/20 09:22:13;;;;;;;5.03;4.63;;;;;;;;;;5057569;28;20779;-77
2021/05/20 09:24:46;;;;;;;5.00;4.60;;;;;;;;;;5058152;28;20226;-78
2021/05/20 09:27:27;;;;;;;5.30;4.90;;;;;;;;;;5059696;28;20415;-77
2021/05/20 09:30:06;;;;;;;5.10;4.10;;;;;;;;;;5052134;28;20445;-77
2021/05/20 09:32:36;;;;;;;4.63;4.00;;;;;;;;;;5055778;28;20930;-76
2021/05/20 09:35:03;;;;;;;4.40;4.00;;;;;;;;;;5068742;28;20434;-75
2021/05/20 09:37:29;;;;;;;4.23;3.93;;;;;;;;;;5052256;28;20506;-77
2021/05/20 09:39:59;;;;;;;4.40;3.80;;;;;;;;;;5074520;28;20562;-78
2021/05/20 09:42:25;;;;;;;4.63;4.23;;;;;;;;;;5072250;28;20441;-76
2021/05/20 09:44:52;;;;;;;4.60;4.20;;;;;;;;;;5067501;28;20483;-76
2021/05/20 09:47:19;;;;;;;5.37;4.97;;;;;;;;;;5067709;28;20415;-77
2021/05/20 09:49:59;;;;;;;5.37;4.80;;;;;;;;;;5055512;28;20498;-77
2021/05/20 09:52:25;;;;;;;5.57;5.07;;;;;;;;;;5050750;28;20493;-77
2021/05/20 09:54:51;;;;;;;5.15;4.75;;;;;;;;;;5052551;28;20434;-77
2021/05/20 09:57:24;;;;;;;5.68;4.63;;;;;;;;;;5065833;28;20179;-77
2021/05/20 10:00:10;;;;;;;5.22;4.63;;;;;;;;;;5071007;28;20208;-77
2021/05/20 10:02:37;;;;;;;5.47;4.77;;;;;;;;;;5066856;28;20177;-77
2021/05/20 10:05:18;;;;;;;4.20;3.90;;;;;;;;;;5080426;28;20505;-76
2021/05/20 10:07:44;;;;;;;3.90;3.60;;;;;;;;;;5063868;28;21176;-76
2021/05/20 10:10:10;;;;;;;4.80;3.70;;;;;;;;;;5070035;28;20452;-76
2021/05/20 10:12:39;;;;;;;4.17;3.87;;;;;;;;;;5076799;28;20429;-77
2021/05/20 10:15:06;;;;;;;4.10;3.80;;;;;;;;;;5072775;28;20476;-78
2021/05/20 10:17:33;;;;;;;4.93;4.50;;;;;;;;;;5077965;28;20515;-78
2021/05/20 10:20:00;;;;;;;5.53;5.00;;;;;;;;;;5068447;28;21113;-76
2021/05/20 10:22:27;;;;;;;4.60;4.23;;;;;;;;;;5075416;28;20415;-77
2021/05/20 10:24:53;;;;;;;5.73;4.47;;;;;;;;;;5061494;28;20938;-77
2021/05/20 10:27:19;;;;;;;5.43;4.97;;;;;;;;;;5082080;28;20487;-79
2021/05/20 10:29:45;;;;;;;6.00;4.57;;;;;;;;;;5056562;28;20440;-77
2021/05/20 10:32:11;;;;;;;4.40;4.10;;;;;;;;;;5066070;28;20428;-77
2021/05/20 10:34:56;;;;;;;4.87;4.57;;;;;;;;;;5061790;28;20427;-77
2021/05/20 10:37:26;;;;;;;4.57;4.17;;;;;;;;;;5058716;28;20418;-76
2021/05/20 10:39:52;;;;;;;4.43;4.13;;;;;;;;;;5055332;28;20463;-77
2021/05/20 10:42:37;;;;;;;4.50;4.20;;;;;;;;;;5049581;28;20423;-77
2021/05/20 10:45:19;;;;;;;4.40;4.07;;;;;;;;;;5069828;28;20952;-77
2021/05/20 10:48:04;;;;;;;5.07;4.57;;;;;;;;;;5049851;28;20414;-76
2021/05/20 10:50:49;;;;;;;4.80;4.50;;;;;;;;;;5049767;28;20443;-77
2021/05/20 10:53:33;;;;;;;4.93;4.57;;;;;;;;;;5053953;28;20438;-77
2021/05/20 10:55:59;;;;;;;4.50;4.20;;;;;;;;;;5054429;28;20425;-78
2021/05/20 10:58:29;;;;;;;4.10;3.70;;;;;;;;;;5054655;28;20560;-77
2021/05/20 11:00:55;;;;;;;3.83;3.53;;;;;;;;;;5053793;28;20550;-78
2021/05/20 11:03:41;;;;;;;4.20;3.80;;;;;;;;;;5053359;28;20433;-76
2021/05/20 11:06:07;;;;;;;4.10;3.70;;;;;;;;;;5050748;28;20435;-77
2021/05/20 11:08:34;;;;;;;5.60;5.17;;;;;;;;;;5059187;28;20424;-76
2021/05/20 11:11:00;;;;;;;5.93;5.20;;;;;;;;;;5059467;28;20420;-77
2021/05/20 11:13:36;;;;;;;9.07;6.17;;;;;;;;;;5066825;28;20568;-80
2021/05/20 11:16:12;;;;;;;7.07;6.37;;;;;;;;;;5049476;28;20486;-77
2021/05/20 11:18:38;;;;;;;6.90;6.30;;;;;;;;;;5058526;28;20433;-75
2021/05/20 11:21:04;;;;;;;6.70;6.20;;;;;;;;;;5052036;28;21036;-76
2021/05/20 11:23:31;;;;;;;6.50;6.00;;;;;;;;;;5053832;28;21087;-75
2021/05/20 11:26:01;;;;;;;6.93;6.27;;;;;;;;;;5050392;28;20769;-77
2021/05/20 11:28:27;;;;;;;6.37;5.87;;;;;;;;;;5063526;28;20437;-78
2021/05/20 11:30:57;;;;;;;6.07;5.57;;;;;;;;;;5048984;28;20453;-77
2021/05/20 11:33:24;;;;;;;6.17;5.67;;;;;;;;;;5058017;28;20438;-76
2021/05/20 11:38:28;;;;;;;6.83;6.33;;;;;;;;;;5062089;28;20516;-76
2021/05/20 11:40:55;;;;;;;6.40;5.90;;;;;;;;;;5062469;28;21028;-76
2021/05/20 11:43:28;;;;;;;8.77;8.07;;;;;;;;;;5052537;28;20502;-77
2021/05/20 11:45:54;;;;;;;7.33;6.83;;;;;;;;;;5049154;28;20462;-74
2021/05/20 11:48:20;;;;;;;6.73;6.23;;;;;;;;;;5054754;28;20472;-77
2021/05/20 11:50:52;;;;;;;7.67;7.07;;;;;;;;;;5069349;28;21264;-79
2021/05/20 11:53:19;;;;;;;7.50;6.90;;;;;;;;;;5063162;28;20422;-77
2021/05/20 11:55:46;;;;;;;6.30;5.10;;;;;;;;;;5053222;28;20418;-76
2021/05/20 11:58:12;;;;;;;7.43;6.70;;;;;;;;;;5053063;28;20444;-77
2021/05/20 12:00:39;;;;;;;6.40;6.00;;;;;;;;;;5056134;28;20472;-76
2021/05/20 12:03:05;;;;;;;5.93;5.47;;;;;;;;;;5052550;28;20450;-76
2021/05/20 12:05:31;;;;;;;6.90;6.40;;;;;;;;;;5051577;28;20448;-78
2021/05/20 12:07:57;;;;;;;7.07;6.37;;;;;;;;;;5056731;28;21061;-79
2021/05/20 12:10:24;;;;;;;6.30;5.80;;;;;;;;;;5066064;28;20517;-78
2021/05/20 12:12:55;;;;;;;9.63;5.93;;;;;;;;;;5052284;28;20427;-77
2021/05/20 12:15:22;;;;;;;10.13;6.00;;;;;;;;;;5052705;28;20502;-78
2021/05/20 12:17:48;;;;;;;5.83;5.30;;;;;;;;;;5052991;28;20884;-75
2021/05/20 12:20:15;;;;;;;9.33;5.67;;;;;;;;;;5052370;28;20504;-74
2021/05/20 12:22:41;;;;;;;5.77;5.27;;;;;;;;;;5052520;28;20414;-76
2021/05/20 12:25:12;;;;;;;5.73;4.40;;;;;;;;;;5053863;28;20449;-77
2021/05/20 12:27:42;;;;;;;3.93;3.63;;;;;;;;;;5062978;28;20437;-78
2021/05/20 12:30:09;;;;;;;4.10;3.70;;;;;;;;;;5054405;28;20442;-76
2021/05/20 12:32:38;;;;;;;3.70;3.40;;;;;;;;;;5063481;28;20434;-78
2021/05/20 12:35:08;;;;;;;3.97;3.67;;;;;;;;;;5066363;28;20450;-76
2021/05/20 12:37:40;;;;;;;4.68;4.28;;;;;;;;;;5056924;28;20442;-76
2021/05/20 12:40:11;;;;;;;4.57;4.18;;;;;;;;;;5074267;28;20293;-78
2021/05/20 12:42:37;;;;;;;5.40;4.90;;;;;;;;;;5058774;28;20721;-77
2021/05/20 12:45:03;;;;;;;4.65;4.25;;;;;;;;;;5064670;28;20181;-78
2021/05/20 12:47:29;;;;;;;5.43;4.93;;;;;;;;;;5063787;28;20177;-77
2021/05/20 12:49:56;;;;;;;5.38;4.47;;;;;;;;;;5069595;28;20279;-76
2021/05/20 12:52:22;;;;;;;5.57;4.85;;;;;;;;;;5051798;28;20185;-78
2021/05/20 12:54:49;;;;;;;4.35;4.00;;;;;;;;;;5067712;28;20588;-76
2021/05/20 12:57:15;;;;;;;4.97;4.47;;;;;;;;;;5057515;28;20184;-78
2021/05/20 12:59:42;;;;;;;4.35;3.95;;;;;;;;;;5052600;28;20208;-76
2021/05/20 13:02:15;;;;;;;4.80;4.30;;;;;;;;;;5060293;28;20235;-73
2021/05/20 13:04:41;;;;;;;4.50;4.10;;;;;;;;;;5058561;28;20211;-77
2021/05/20 13:07:09;;;;;;;4.78;4.38;;;;;;;;;;5063754;28;20224;-79
2021/05/20 13:09:39;;;;;;;4.68;4.28;;;;;;;;;;5051785;28;20324;-78
2021/05/20 13:12:08;;;;;;;5.38;4.80;;;;;;;;;;5053329;28;20223;-77
2021/05/20 13:22:25;;;;;;;6.32;4.85;;;;;;;;;;5063586;28;20241;-77
2021/05/20 13:25:01;;;;;;;5.35;4.47;;;;;;;;;;5063535;28;20216;-76
2021/05/20 13:27:28;;;;;;;5.07;4.68;;;;;;;;;;5064873;28;20184;-77
2021/05/20 13:29:58;;;;;;;4.50;4.10;;;;;;;;;;5054062;28;20196;-78
2021/05/20 13:35:07;;;;;;;4.10;3.80;;;;;;;;;;5060811;28;20418;-76
2021/05/20 13:37:33;;;;;;;4.13;3.83;;;;;;;;;;5076036;28;20793;-76
2021/05/20 13:40:01;;;;;;;4.13;3.20;;;;;;;;;;5065020;28;20981;-76
2021/05/20 13:42:27;;;;;;;3.50;3.20;;;;;;;;;;5067143;28;20438;-73
2021/05/20 13:44:55;;;;;;;5.47;3.33;;;;;;;;;;5083059;28;20775;-75
2021/05/20 13:47:22;;;;;;;3.27;2.97;;;;;;;;;;5063431;28;20427;-76
2021/05/20 13:49:48;;;;;;;3.83;3.53;;;;;;;;;;5050847;28;20445;-79
2021/05/20 13:52:19;;;;;;;4.40;4.00;;;;;;;;;;5057519;28;21034;-77
2021/05/20 13:54:46;;;;;;;3.90;3.60;;;;;;;;;;5050728;28;20418;-76
2021/05/20 13:57:13;;;;;;;4.47;3.87;;;;;;;;;;5054682;28;20457;-76
2021/05/20 13:59:44;;;;;;;4.20;3.90;;;;;;;;;;5050660;28;20819;-78
2021/05/20 14:02:11;;;;;;;3.60;3.30;;;;;;;;;;5053074;28;20425;-78
2021/05/20 14:04:38;;;;;;;4.13;3.83;;;;;;;;;;5051598;28;20408;-77
2021/05/20 14:07:05;;;;;;;4.37;3.97;;;;;;;;;;5060476;28;20453;-73
2021/05/20 14:09:31;;;;;;;3.53;2.90;;;;;;;;;;5050380;28;20448;-78
2021/05/20 14:11:58;;;;;;;6.13;3.40;;;;;;;;;;5053457;28;20454;-75
2021/05/20 14:14:24;;;;;;;3.97;3.67;;;;;;;;;;5061899;28;20453;-77
2021/05/20 14:16:50;;;;;;;3.67;3.37;;;;;;;;;;5070014;28;20421;-76
2021/05/20 14:19:16;;;;;;;4.33;3.83;;;;;;;;;;5065975;28;20453;-75
2021/05/20 14:21:42;;;;;;;3.80;3.40;;;;;;;;;;5050031;28;20421;-76
2021/05/20 14:24:08;;;;;;;3.87;3.43;;;;;;;;;;5056403;28;20422;-77
2021/05/20 14:26:35;;;;;;;3.80;3.40;;;;;;;;;;5051475;28;20912;-78
2021/05/20 14:29:01;;;;;;;3.50;3.20;;;;;;;;;;5063067;28;20457;-77
2021/05/20 14:31:27;;;;;;;3.57;3.20;;;;;;;;;;5050184;28;20438;-77
2021/05/20 14:33:53;;;;;;;9.17;5.57;;;;;;;;;;5060066;28;20434;-75
2021/05/20 14:36:19;;;;;;;4.00;3.63;;;;;;;;;;5049479;28;20563;-77
2021/05/20 14:38:45;;;;;;;4.70;4.30;;;;;;;;;;5058274;28;20423;-77
2021/05/20 14:41:11;;;;;;;4.17;3.80;;;;;;;;;;5049358;28;20939;-77
2021/05/20 14:43:37;;;;;;;4.00;3.70;;;;;;;;;;5056599;28;20482;-78
2021/05/20 14:46:03;;;;;;;3.70;3.40;;;;;;;;;;5069074;28;20465;-76
2021/05/20 14:48:30;;;;;;;4.13;3.57;;;;;;;;;;5073631;28;20430;-77
2021/05/20 14:51:18;;;;;;;4.40;4.10;;;;;;;;;;5065501;28;20464;-77
2021/05/20 14:53:53;;;;;;;4.87;4.20;;;;;;;;;;5052016;28;20432;-75
2021/05/20 14:56:28;;;;;;;4.33;3.87;;;;;;;;;;5055972;28;20470;-77
2021/05/20 15:04:59;;;;;;;3.90;3.60;;;;;;;;;;5049300;28;20433;-75